Time;durP1;ratioP1;P1;durP2;ratioP2;P2;SDS_P1;SDS_P2;PMS_P1;PMS_P2;Temp;Humidity;BMP_temperature;BMP_pressure;BME280_temperature;BME280_humidity;BME280_pressure;Samples;Min_cycle;Max_cycle;Signal;HPM_P1;HPM_P2
2023/06/20 00:00:48;;;;;;;7.63;3.70;;;22.70;62.30;;;;;;5054034;28;20139;-73
2023/06/20 00:03:14;;;;;;;7.22;4.13;;;22.70;62.20;;;;;;5053961;28;20497;-73
2023/06/20 00:05:40;;;;;;;6.07;3.63;;;22.60;62.30;;;;;;5054792;28;20031;-74
2023/06/20 00:08:06;;;;;;;8.02;4.07;;;22.60;62.40;;;;;;5054213;28;20103;-73
2023/06/20 00:10:31;;;;;;;7.32;3.75;;;22.60;62.60;;;;;;5056111;28;20386;-74
2023/06/20 00:12:58;;;;;;;6.07;3.60;;;22.60;62.70;;;;;;5054878;28;20044;-75
2023/06/20 00:15:25;;;;;;;7.22;4.20;;;22.60;62.60;;;;;;5056099;28;20025;-73
2023/06/20 00:18:01;;;;;;;8.40;4.13;;;22.50;62.60;;;;;;5054714;28;20052;-74
2023/06/20 00:20:27;;;;;;;7.30;4.20;;;22.50;62.60;;;;;;5054697;28;20025;-73
2023/06/20 00:22:57;;;;;;;7.15;4.40;;;22.50;62.70;;;;;;5055084;28;20025;-74
2023/06/20 00:25:22;;;;;;;7.05;3.95;;;22.50;62.90;;;;;;5054623;28;20033;-73
2023/06/20 00:27:48;;;;;;;7.63;4.10;;;22.50;62.90;;;;;;5054383;28;20029;-74
2023/06/20 00:30:15;;;;;;;5.95;3.40;;;22.40;63.10;;;;;;5054658;28;20025;-73
2023/06/20 00:32:40;;;;;;;7.28;4.15;;;22.40;63.10;;;;;;5055821;28;20084;-80
2023/06/20 00:35:06;;;;;;;6.63;3.55;;;22.40;63.10;;;;;;5054709;28;20063;-79
2023/06/20 00:37:36;;;;;;;6.95;4.10;;;22.40;63.20;;;;;;5054483;28;20040;-79
2023/06/20 00:40:03;;;;;;;7.40;4.07;;;22.40;63.30;;;;;;5038356;28;20025;-73
2023/06/20 00:42:29;;;;;;;9.25;3.80;;;22.40;63.40;;;;;;5055795;28;20017;-74
2023/06/20 00:44:54;;;;;;;7.80;4.28;;;22.40;63.30;;;;;;5037815;28;20083;-73
2023/06/20 00:47:20;;;;;;;7.28;4.43;;;22.30;63.50;;;;;;5055299;28;20044;-73
2023/06/20 00:49:49;;;;;;;6.88;4.25;;;22.30;63.60;;;;;;5055437;28;20096;-73
2023/06/20 00:52:19;;;;;;;7.63;4.40;;;22.40;63.60;;;;;;5055484;28;20056;-73
2023/06/20 00:54:47;;;;;;;7.53;4.05;;;22.30;63.70;;;;;;5055172;28;20407;-73
2023/06/20 00:57:14;;;;;;;6.22;3.63;;;22.30;63.60;;;;;;5053992;28;20054;-74
2023/06/20 00:59:45;;;;;;;7.70;4.07;;;22.30;63.90;;;;;;5054101;28;20033;-74
2023/06/20 01:02:14;;;;;;;7.50;3.85;;;22.30;63.90;;;;;;5055100;28;20021;-73
2023/06/20 01:04:41;;;;;;;6.03;3.80;;;22.30;63.70;;;;;;5055175;28;20029;-74
2023/06/20 01:07:24;;;;;;;9.27;4.32;;;22.30;63.70;;;;;;5055002;28;20032;-74
2023/06/20 01:09:59;;;;;;;6.90;4.10;;;22.30;63.80;;;;;;5053969;28;20021;-73
2023/06/20 01:12:33;;;;;;;6.68;4.15;;;22.20;63.80;;;;;;5055063;28;20057;-73
2023/06/20 01:15:28;;;;;;;8.27;4.70;;;22.20;63.80;;;;;;5054903;28;20025;-74
2023/06/20 01:18:26;;;;;;;8.73;4.38;;;22.20;64.60;;;;;;5054433;28;20052;-74
2023/06/20 01:20:58;;;;;;;7.22;4.03;;;22.20;64.10;;;;;;5054948;28;20063;-73
2023/06/20 01:23:30;;;;;;;7.53;4.10;;;22.20;64.00;;;;;;5053546;28;20029;-73
2023/06/20 01:26:07;;;;;;;6.13;3.90;;;22.20;64.10;;;;;;5054784;28;20363;-73
2023/06/20 01:28:46;;;;;;;6.85;4.30;;;22.20;64.10;;;;;;5036853;28;20068;-73
2023/06/20 01:31:15;;;;;;;7.32;3.65;;;22.10;64.00;;;;;;5053208;28;20535;-73
2023/06/20 01:34:00;;;;;;;7.43;4.05;;;22.20;64.10;;;;;;5054547;28;20043;-73
2023/06/20 01:36:39;;;;;;;7.22;4.72;;;22.10;64.30;;;;;;5053257;28;20102;-73
2023/06/20 01:39:31;;;;;;;10.70;4.60;;;22.20;64.30;;;;;;5054544;28;20033;-73
2023/06/20 01:41:59;;;;;;;9.85;4.68;;;22.10;64.30;;;;;;5054066;28;20405;-73
2023/06/20 01:44:27;;;;;;;7.32;4.90;;;22.10;64.30;;;;;;5054354;28;20032;-73
2023/06/20 01:46:56;;;;;;;7.20;4.63;;;22.10;64.40;;;;;;5052942;28;20056;-73
2023/06/20 01:49:23;;;;;;;7.68;4.70;;;22.10;64.50;;;;;;5054396;28;20088;-73
2023/06/20 01:51:55;;;;;;;7.57;4.70;;;22.10;64.60;;;;;;5052898;28;20443;-73
2023/06/20 01:54:27;;;;;;;7.78;4.47;;;22.10;65.40;;;;;;5054151;28;20025;-73
2023/06/20 01:56:54;;;;;;;7.75;5.07;;;22.10;64.70;;;;;;5037114;28;20027;-73
2023/06/20 01:59:20;;;;;;;8.88;5.43;;;22.10;64.80;;;;;;5054109;28;20025;-73
2023/06/20 02:01:48;;;;;;;6.35;4.40;;;22.10;64.90;;;;;;5054054;28;20029;-73
2023/06/20 02:04:16;;;;;;;6.57;4.90;;;22.10;64.90;;;;;;5052244;28;20381;-79
2023/06/20 02:06:44;;;;;;;5.85;4.25;;;22.10;65.00;;;;;;5052679;28;20021;-79
2023/06/20 02:09:12;;;;;;;6.85;4.47;;;22.10;65.00;;;;;;5052701;28;20032;-79
2023/06/20 02:11:39;;;;;;;7.95;5.22;;;22.10;65.10;;;;;;5052632;28;20033;-79
2023/06/20 02:14:06;;;;;;;8.27;4.65;;;22.00;65.00;;;;;;5053961;28;20047;-78
2023/06/20 02:16:34;;;;;;;8.23;5.22;;;22.00;65.10;;;;;;5053824;28;20040;-79
2023/06/20 02:19:00;;;;;;;7.20;4.68;;;22.00;65.20;;;;;;5053905;28;20040;-79
2023/06/20 02:21:31;;;;;;;7.57;4.88;;;22.00;65.30;;;;;;5052522;28;20416;-79
2023/06/20 02:23:58;;;;;;;8.80;4.68;;;22.00;65.60;;;;;;5052752;28;20102;-79
2023/06/20 02:26:31;;;;;;;11.20;4.93;;;22.00;65.50;;;;;;5052492;28;20111;-79
2023/06/20 02:29:02;;;;;;;8.25;5.00;;;22.00;65.50;;;;;;5047393;28;20051;-79
2023/06/20 02:31:32;;;;;;;8.52;5.03;;;22.00;65.60;;;;;;5043522;28;20040;-73
2023/06/20 02:34:00;;;;;;;8.23;5.05;;;21.90;65.60;;;;;;5053193;28;20466;-74
2023/06/20 02:36:28;;;;;;;7.65;4.78;;;21.90;65.80;;;;;;5052362;28;20029;-74
2023/06/20 02:38:56;;;;;;;8.93;4.78;;;21.90;65.90;;;;;;5052143;28;20380;-73
2023/06/20 02:41:21;;;;;;;8.75;5.45;;;21.90;66.00;;;;;;5053727;28;20029;-74
2023/06/20 02:43:48;;;;;;;9.25;5.88;;;21.90;66.20;;;;;;5052271;28;20040;-79
2023/06/20 02:46:27;;;;;;;10.02;5.50;;;21.90;66.20;;;;;;5053751;28;20025;-78
2023/06/20 02:49:15;;;;;;;8.93;5.68;;;21.90;66.20;;;;;;5053390;28;20496;-79
2023/06/20 02:51:55;;;;;;;9.77;5.07;;;21.90;66.30;;;;;;5053461;28;20021;-79
2023/06/20 02:54:31;;;;;;;8.20;4.88;;;21.80;66.40;;;;;;5053339;28;20500;-79
2023/06/20 02:57:01;;;;;;;9.13;5.38;;;21.80;66.50;;;;;;5053134;28;20490;-79
2023/06/20 02:59:31;;;;;;;9.10;5.82;;;21.80;66.60;;;;;;5053358;28;20057;-79
2023/06/20 03:02:01;;;;;;;9.52;5.82;;;21.80;66.70;;;;;;5051968;28;20393;-79
2023/06/20 03:04:32;;;;;;;8.68;5.10;;;21.80;66.80;;;;;;5048930;28;20070;-79
2023/06/20 03:06:59;;;;;;;10.63;6.55;;;21.80;67.10;;;;;;5048280;28;20478;-79
2023/06/20 03:09:26;;;;;;;8.35;5.05;;;21.80;67.00;;;;;;5032859;28;20021;-80
2023/06/20 03:11:52;;;;;;;10.07;6.03;;;21.80;67.10;;;;;;5032111;28;20496;-79
2023/06/20 03:14:18;;;;;;;9.07;5.95;;;21.80;67.20;;;;;;5033552;28;20029;-79
2023/06/20 03:16:43;;;;;;;8.48;5.25;;;21.80;67.30;;;;;;5037309;28;20478;-79
2023/06/20 03:19:10;;;;;;;8.43;5.68;;;21.80;67.20;;;;;;5035857;28;20478;-78
2023/06/20 03:21:37;;;;;;;11.82;6.10;;;21.80;67.30;;;;;;5037173;28;20037;-79
2023/06/20 03:24:03;;;;;;;7.88;5.53;;;21.80;67.60;;;;;;5035977;28;20359;-80
2023/06/20 03:26:29;;;;;;;9.73;6.82;;;21.80;67.90;;;;;;5035647;28;20044;-78
2023/06/20 03:28:54;;;;;;;10.13;6.72;;;21.80;67.80;;;;;;5037030;28;20083;-79
2023/06/20 03:31:20;;;;;;;9.13;6.20;;;21.80;67.90;;;;;;5035708;28;20033;-79
2023/06/20 03:33:45;;;;;;;8.52;5.32;;;21.80;68.00;;;;;;5035676;28;20501;-79
2023/06/20 03:36:12;;;;;;;11.55;5.85;;;21.80;68.10;;;;;;5036985;28;20026;-79
2023/06/20 03:38:39;;;;;;;9.18;6.10;;;21.80;68.20;;;;;;5019175;28;20026;-73
2023/06/20 03:41:05;;;;;;;9.43;6.63;;;21.80;68.20;;;;;;5036724;28;20116;-73
2023/06/20 03:43:31;;;;;;;9.02;5.68;;;21.70;68.40;;;;;;5019144;28;20117;-74
2023/06/20 03:45:56;;;;;;;11.40;6.45;;;21.70;68.40;;;;;;5035558;28;20037;-73
2023/06/20 03:48:22;;;;;;;9.63;6.88;;;21.70;68.40;;;;;;5036532;28;20029;-73
2023/06/20 03:50:48;;;;;;;9.57;6.22;;;21.70;68.60;;;;;;5018885;28;20025;-79
2023/06/20 03:53:13;;;;;;;8.80;5.82;;;21.70;68.70;;;;;;5018856;28;20026;-79
2023/06/20 03:55:39;;;;;;;8.98;5.85;;;21.70;68.80;;;;;;5035545;28;20028;-79
2023/06/20 03:58:04;;;;;;;9.48;6.43;;;21.70;68.80;;;;;;5018788;28;20045;-79
2023/06/20 04:00:30;;;;;;;12.52;6.40;;;21.70;68.80;;;;;;5036521;28;20030;-79
2023/06/20 04:02:56;;;;;;;10.20;5.90;;;21.70;69.10;;;;;;5036328;28;20084;-79
2023/06/20 04:05:22;;;;;;;9.93;6.25;;;21.70;69.00;;;;;;5035052;28;20063;-78
2023/06/20 04:07:47;;;;;;;8.85;6.25;;;21.70;68.90;;;;;;5036213;28;20029;-79
2023/06/20 04:10:13;;;;;;;10.77;6.03;;;21.70;69.10;;;;;;5035154;28;20386;-78
2023/06/20 04:12:40;;;;;;;9.27;6.30;;;21.70;69.20;;;;;;5035026;28;20037;-74
2023/06/20 04:15:07;;;;;;;11.10;6.85;;;21.70;69.20;;;;;;5034971;28;20028;-73
2023/06/20 04:17:33;;;;;;;8.23;6.20;;;21.70;69.20;;;;;;5035415;28;20521;-74
2023/06/20 04:20:04;;;;;;;9.55;5.88;;;21.70;69.20;;;;;;5033730;28;20029;-73
2023/06/20 04:22:29;;;;;;;9.85;6.30;;;21.70;69.30;;;;;;5034870;28;20029;-73
2023/06/20 04:24:55;;;;;;;9.40;6.20;;;21.70;69.20;;;;;;5033903;28;20497;-74
2023/06/20 04:27:21;;;;;;;9.57;6.50;;;21.70;69.10;;;;;;5032972;28;20033;-74
2023/06/20 04:29:47;;;;;;;8.75;5.65;;;21.70;69.10;;;;;;5033463;28;20026;-74
2023/06/20 04:32:12;;;;;;;8.02;5.78;;;21.70;69.00;;;;;;5034716;28;20180;-74
2023/06/20 04:34:38;;;;;;;9.60;6.57;;;21.70;69.00;;;;;;5033436;28;20037;-73
2023/06/20 04:37:03;;;;;;;9.93;6.30;;;21.70;69.00;;;;;;5034589;28;20076;-73
2023/06/20 04:39:29;;;;;;;8.85;6.32;;;21.70;69.00;;;;;;5033771;28;20485;-74
2023/06/20 04:41:55;;;;;;;12.23;6.78;;;21.80;69.10;;;;;;5033563;28;20115;-73
2023/06/20 04:44:21;;;;;;;8.35;6.20;;;21.70;69.00;;;;;;5033526;28;20104;-73
2023/06/20 04:46:46;;;;;;;9.30;6.55;;;21.80;69.20;;;;;;5034283;28;20045;-73
2023/06/20 04:49:12;;;;;;;10.45;7.13;;;21.80;69.20;;;;;;5033137;28;20036;-74
2023/06/20 04:51:40;;;;;;;10.63;7.10;;;21.80;69.20;;;;;;5016720;28;20545;-73
2023/06/20 04:54:07;;;;;;;8.90;5.82;;;21.80;69.30;;;;;;5034374;28;20108;-73
2023/06/20 04:56:40;;;;;;;8.98;6.25;;;21.90;69.30;;;;;;5033074;28;20022;-73
2023/06/20 04:59:08;;;;;;;10.65;7.07;;;21.90;69.20;;;;;;5034233;28;20541;-74
2023/06/20 05:01:34;;;;;;;10.15;6.20;;;21.90;69.30;;;;;;5033006;28;20469;-73
2023/06/20 05:04:00;;;;;;;9.30;6.82;;;21.90;69.20;;;;;;5032815;28;20031;-74
2023/06/20 05:06:25;;;;;;;9.68;7.10;;;21.90;69.30;;;;;;5035936;28;20120;-74
2023/06/20 05:08:52;;;;;;;11.27;7.47;;;21.90;69.40;;;;;;5048608;28;20024;-74
2023/06/20 05:11:18;;;;;;;10.98;6.80;;;21.90;69.50;;;;;;5033310;28;20375;-74
2023/06/20 05:13:43;;;;;;;8.90;6.68;;;22.00;69.70;;;;;;5047095;28;20031;-74
2023/06/20 05:16:09;;;;;;;9.93;6.72;;;22.00;69.70;;;;;;5042478;28;20033;-74
2023/06/20 05:18:35;;;;;;;11.57;8.02;;;22.00;69.80;;;;;;4992507;28;1098467;-74
2023/06/20 05:21:00;;;;;;;10.88;7.30;;;22.00;69.80;;;;;;5049629;28;20033;-74
2023/06/20 05:23:26;;;;;;;10.18;7.53;;;22.00;69.80;;;;;;5051990;28;20068;-74
2023/06/20 05:25:52;;;;;;;10.80;7.05;;;22.10;69.90;;;;;;5053669;28;20033;-74
2023/06/20 05:28:18;;;;;;;9.38;6.45;;;22.10;70.50;;;;;;5048588;28;20026;-73
2023/06/20 05:30:44;;;;;;;9.27;7.00;;;22.10;69.90;;;;;;5042869;28;20029;-74
2023/06/20 05:33:09;;;;;;;11.07;7.10;;;22.10;69.80;;;;;;5042630;28;20029;-74
2023/06/20 05:35:35;;;;;;;10.40;8.25;;;22.20;70.00;;;;;;5046389;28;20394;-74
2023/06/20 05:38:01;;;;;;;10.20;7.25;;;22.20;70.00;;;;;;5041156;28;20052;-74
2023/06/20 05:40:26;;;;;;;11.30;7.85;;;22.20;69.90;;;;;;5043894;28;20114;-74
2023/06/20 05:42:52;;;;;;;10.32;7.25;;;22.30;69.90;;;;;;5044957;28;20040;-74
2023/06/20 05:45:17;;;;;;;11.25;8.25;;;22.30;69.90;;;;;;5043723;28;20025;-74
2023/06/20 05:47:46;;;;;;;10.60;7.72;;;22.30;69.80;;;;;;5039281;28;20040;-74
2023/06/20 05:50:12;;;;;;;11.35;8.18;;;22.40;69.80;;;;;;5016985;28;20028;-74
2023/06/20 05:52:38;;;;;;;13.73;8.00;;;22.40;69.70;;;;;;5034510;28;20031;-74
2023/06/20 05:55:04;;;;;;;10.43;7.97;;;22.40;69.70;;;;;;5036180;28;20025;-74
2023/06/20 05:57:30;;;;;;;10.20;7.63;;;22.50;69.60;;;;;;5052943;28;20565;-75
2023/06/20 05:59:56;;;;;;;12.95;7.90;;;22.50;69.60;;;;;;5052849;28;20068;-74
2023/06/20 06:02:22;;;;;;;12.40;7.35;;;22.40;69.60;;;;;;5054099;28;20041;-74
2023/06/20 06:04:50;;;;;;;10.63;7.72;;;22.50;69.70;;;;;;5054042;28;20025;-74
2023/06/20 06:07:16;;;;;;;11.48;7.85;;;22.50;69.70;;;;;;5054043;28;20029;-75
2023/06/20 06:09:42;;;;;;;11.77;8.48;;;22.50;69.80;;;;;;5053980;28;20108;-78
2023/06/20 06:12:08;;;;;;;10.73;7.07;;;22.60;69.80;;;;;;5048807;28;20485;-78
2023/06/20 06:14:33;;;;;;;11.00;7.57;;;22.60;69.80;;;;;;5053778;28;20025;-78
2023/06/20 06:16:59;;;;;;;11.93;7.00;;;22.60;69.80;;;;;;5052274;28;20025;-78
2023/06/20 06:19:25;;;;;;;14.52;6.82;;;22.70;69.80;;;;;;5051543;28;20504;-78
2023/06/20 06:21:50;;;;;;;10.25;7.82;;;22.70;69.80;;;;;;5034235;28;20029;-78
2023/06/20 06:24:16;;;;;;;11.68;8.32;;;22.70;69.80;;;;;;5035780;28;20032;-79
2023/06/20 06:26:41;;;;;;;10.68;8.43;;;22.80;69.80;;;;;;5053278;28;20033;-80
2023/06/20 06:29:07;;;;;;;9.90;8.43;;;22.80;69.70;;;;;;5052200;28;20120;-80
2023/06/20 06:31:34;;;;;;;10.45;8.10;;;22.90;69.70;;;;;;5053643;28;20025;-80
2023/06/20 06:34:02;;;;;;;11.57;8.70;;;22.90;70.20;;;;;;5053692;28;20036;-79
2023/06/20 06:36:32;;;;;;;12.93;8.35;;;22.90;69.50;;;;;;5052079;28;20025;-80
2023/06/20 06:38:58;;;;;;;10.40;8.38;;;23.00;69.50;;;;;;5053446;28;20024;-79
2023/06/20 06:41:24;;;;;;;11.65;8.40;;;23.00;69.40;;;;;;5035513;28;20017;-79
2023/06/20 06:43:50;;;;;;;12.05;8.32;;;23.10;69.50;;;;;;5019152;28;20055;-79
2023/06/20 06:46:15;;;;;;;12.20;9.60;;;23.20;69.50;;;;;;5053244;28;20111;-81
2023/06/20 06:48:41;;;;;;;10.48;8.75;;;23.20;69.50;;;;;;5051759;28;20029;-81
2023/06/20 06:51:07;;;;;;;12.82;8.82;;;23.30;69.50;;;;;;5051931;28;20033;-81
2023/06/20 06:53:33;;;;;;;11.52;9.50;;;23.40;69.40;;;;;;5053523;28;20478;-79
2023/06/20 06:55:58;;;;;;;11.68;8.95;;;23.40;69.40;;;;;;5053350;28;20033;-80
2023/06/20 06:58:24;;;;;;;13.32;9.30;;;23.50;69.40;;;;;;5051904;28;20420;-80
2023/06/20 07:00:50;;;;;;;10.90;8.27;;;23.60;69.40;;;;;;5035263;28;20461;-80
2023/06/20 07:03:16;;;;;;;11.60;8.68;;;23.60;69.40;;;;;;5053459;28;20123;-81
2023/06/20 07:05:41;;;;;;;12.85;8.15;;;23.70;69.40;;;;;;5035285;28;20028;-81
2023/06/20 07:08:07;;;;;;;12.40;8.68;;;23.80;69.20;;;;;;5053369;28;20044;-80
2023/06/20 07:10:33;;;;;;;12.82;8.77;;;23.90;69.10;;;;;;5051836;28;20033;-81
2023/06/20 07:12:59;;;;;;;9.98;8.07;;;23.90;69.00;;;;;;5051625;28;20024;-80
2023/06/20 07:15:24;;;;;;;11.05;8.75;;;23.90;68.90;;;;;;5035385;28;20049;-81
2023/06/20 07:17:50;;;;;;;15.90;8.77;;;24.00;68.90;;;;;;5035032;28;20063;-81
2023/06/20 07:20:17;;;;;;;10.63;8.73;;;24.10;69.00;;;;;;5051811;28;20401;-80
2023/06/20 07:22:44;;;;;;;13.98;8.82;;;24.20;69.00;;;;;;5052975;28;20025;-80
2023/06/20 07:25:11;;;;;;;17.13;8.63;;;24.30;69.00;;;;;;5052896;28;20037;-80
2023/06/20 07:27:36;;;;;;;12.07;8.02;;;24.30;68.90;;;;;;5051753;28;20040;-80
2023/06/20 07:30:02;;;;;;;11.40;7.72;;;24.40;68.90;;;;;;5051858;28;20029;-81
2023/06/20 07:32:28;;;;;;;10.57;8.10;;;24.50;68.90;;;;;;5052834;28;20037;-81
2023/06/20 07:34:54;;;;;;;8.43;6.90;;;24.60;68.70;;;;;;5034857;28;20068;-81
2023/06/20 07:37:19;;;;;;;9.30;7.22;;;24.60;68.60;;;;;;5051589;28;20037;-82
2023/06/20 07:39:46;;;;;;;9.60;7.43;;;24.60;68.40;;;;;;5052888;28;20052;-81
2023/06/20 07:42:13;;;;;;;9.57;6.70;;;24.70;68.30;;;;;;5052903;28;20033;-81
2023/06/20 07:44:38;;;;;;;9.65;7.50;;;24.80;68.20;;;;;;5051692;28;20108;-81
2023/06/20 07:47:04;;;;;;;9.05;7.18;;;24.80;68.10;;;;;;5035037;28;20556;-81
2023/06/20 07:49:30;;;;;;;13.00;7.57;;;24.90;68.10;;;;;;5052910;28;20484;-82
2023/06/20 07:51:56;;;;;;;13.48;8.65;;;24.90;68.00;;;;;;5051706;28;20029;-81
2023/06/20 07:54:22;;;;;;;10.30;7.90;;;25.00;67.90;;;;;;5036945;28;20466;-81
2023/06/20 07:56:47;;;;;;;10.63;8.23;;;25.10;67.90;;;;;;5029639;28;20092;-82
2023/06/20 07:59:13;;;;;;;10.82;8.10;;;25.10;67.80;;;;;;5030909;28;20029;-80
2023/06/20 08:01:38;;;;;;;12.15;8.38;;;25.20;67.80;;;;;;5032891;28;20034;-81
2023/06/20 08:04:04;;;;;;;16.95;8.25;;;25.20;67.80;;;;;;5034862;28;20128;-80
2023/06/20 08:06:30;;;;;;;11.48;7.90;;;25.30;67.70;;;;;;5035230;28;20106;-80
2023/06/20 08:08:56;;;;;;;10.43;7.60;;;25.30;67.70;;;;;;5017523;28;20034;-81
2023/06/20 08:11:22;;;;;;;10.10;7.72;;;25.40;67.80;;;;;;5036410;28;20473;-81
2023/06/20 08:13:48;;;;;;;9.70;7.35;;;25.50;67.70;;;;;;5036177;28;20462;-80
2023/06/20 08:16:14;;;;;;;9.60;7.25;;;25.50;67.70;;;;;;5036131;28;20037;-83
2023/06/20 08:18:39;;;;;;;9.15;7.25;;;25.60;67.90;;;;;;5034897;28;20053;-80
2023/06/20 08:21:05;;;;;;;9.35;6.45;;;25.60;67.80;;;;;;5034916;28;20120;-80
2023/06/20 08:23:31;;;;;;;8.82;6.95;;;25.60;68.30;;;;;;5034734;28;20030;-81
2023/06/20 08:25:57;;;;;;;8.63;6.25;;;25.60;67.60;;;;;;5018296;28;20099;-81
2023/06/20 08:28:23;;;;;;;6.78;5.43;;;25.70;67.60;;;;;;5035902;28;20021;-82
2023/06/20 08:30:49;;;;;;;8.63;5.78;;;25.70;67.60;;;;;;5036081;28;20045;-81
2023/06/20 08:33:15;;;;;;;8.40;5.40;;;25.70;67.60;;;;;;5035821;28;20030;-81
2023/06/20 08:35:40;;;;;;;8.85;5.82;;;25.70;67.60;;;;;;5035706;28;20118;-82
2023/06/20 08:38:06;;;;;;;8.18;5.97;;;25.80;67.50;;;;;;5034428;28;20033;-83
2023/06/20 08:40:33;;;;;;;8.27;5.25;;;25.80;67.50;;;;;;5034441;28;20029;-81
2023/06/20 08:42:59;;;;;;;6.43;5.10;;;25.80;67.40;;;;;;5034523;28;20030;-79
2023/06/20 08:45:25;;;;;;;10.20;5.15;;;25.90;67.30;;;;;;5035689;28;20037;-75
2023/06/20 08:47:50;;;;;;;22.88;6.00;;;25.90;67.00;;;;;;5035488;28;20041;-75
2023/06/20 08:50:16;;;;;;;9.05;5.38;;;25.90;66.90;;;;;;5034242;28;20171;-75
2023/06/20 08:52:49;;;;;;;8.93;4.75;;;25.90;66.70;;;;;;5035318;28;20025;-77
2023/06/20 08:55:16;;;;;;;11.15;4.93;;;25.90;66.50;;;;;;5036672;28;20029;-75
2023/06/20 08:57:43;;;;;;;6.93;4.70;;;25.90;66.50;;;;;;5055123;28;20037;-76
2023/06/20 09:00:13;;;;;;;6.18;4.80;;;26.00;66.60;;;;;;5053910;28;20029;-81
2023/06/20 09:02:38;;;;;;;7.13;4.97;;;26.00;66.50;;;;;;5054177;28;20120;-80
2023/06/20 09:05:05;;;;;;;5.30;4.20;;;26.10;66.30;;;;;;5055164;28;20111;-80
2023/06/20 09:07:36;;;;;;;6.47;4.93;;;26.10;66.20;;;;;;5051284;28;20029;-79
2023/06/20 09:10:02;;;;;;;6.85;5.10;;;26.20;66.00;;;;;;5042259;28;20031;-81
2023/06/20 09:12:27;;;;;;;7.55;4.80;;;26.20;65.90;;;;;;5053953;28;20051;-82
2023/06/20 09:14:53;;;;;;;7.82;4.85;;;26.30;66.00;;;;;;5037079;28;20371;-82
2023/06/20 09:17:19;;;;;;;8.52;5.60;;;26.30;66.00;;;;;;5053485;28;20029;-75
2023/06/20 09:19:46;;;;;;;6.32;4.60;;;26.40;66.00;;;;;;5037139;28;20037;-75
2023/06/20 09:22:13;;;;;;;7.05;4.53;;;26.40;65.90;;;;;;5054777;28;20474;-74
2023/06/20 09:24:43;;;;;;;6.43;4.53;;;26.50;65.80;;;;;;5037028;28;20029;-76
2023/06/20 09:27:08;;;;;;;8.93;4.90;;;26.50;65.50;;;;;;5054621;28;20493;-76
2023/06/20 09:29:49;;;;;;;6.78;4.50;;;26.60;65.50;;;;;;5036917;28;20037;-76
2023/06/20 09:32:22;;;;;;;7.55;4.97;;;26.60;65.40;;;;;;5054666;28;20492;-76
2023/06/20 09:34:49;;;;;;;11.00;5.20;;;26.60;65.20;;;;;;5054703;28;20559;-76
2023/06/20 09:37:17;;;;;;;6.30;4.70;;;26.70;65.20;;;;;;5053304;28;20021;-75
2023/06/20 09:39:42;;;;;;;6.65;4.90;;;26.70;65.10;;;;;;5036825;28;20385;-75
2023/06/20 09:42:14;;;;;;;9.20;5.22;;;26.80;65.20;;;;;;5053417;28;20036;-76
2023/06/20 09:44:40;;;;;;;6.28;4.57;;;26.80;65.20;;;;;;5053234;28;20029;-76
2023/06/20 09:47:07;;;;;;;6.18;4.03;;;26.90;65.30;;;;;;5053136;28;20033;-76
2023/06/20 09:49:34;;;;;;;6.78;4.88;;;26.90;65.30;;;;;;5054413;28;20032;-76
2023/06/20 09:52:14;;;;;;;6.50;4.95;;;27.00;65.40;;;;;;5054397;28;20473;-76
2023/06/20 09:55:12;;;;;;;6.05;4.05;;;27.00;65.40;;;;;;5037679;28;20049;-77
2023/06/20 09:57:50;;;;;;;7.30;4.20;;;27.20;66.00;;;;;;5014539;28;20044;-76
2023/06/20 10:00:17;;;;;;;6.88;3.92;;;27.30;65.20;;;;;;5054215;28;20134;-76
2023/06/20 10:02:47;;;;;;;6.70;3.13;;;27.30;64.80;;;;;;5054110;28;20017;-76
2023/06/20 10:05:15;;;;;;;5.32;3.47;;;27.40;64.40;;;;;;5052832;28;20057;-75
2023/06/20 10:07:42;;;;;;;7.63;3.63;;;27.50;64.20;;;;;;5052660;28;20071;-76
2023/06/20 10:10:08;;;;;;;5.38;3.45;;;27.60;63.90;;;;;;5052716;28;20091;-76
2023/06/20 10:12:35;;;;;;;4.88;3.63;;;27.60;63.70;;;;;;5052624;28;20029;-76
2023/06/20 10:15:04;;;;;;;8.55;3.78;;;27.60;63.50;;;;;;5052638;28;20032;-75
2023/06/20 10:17:31;;;;;;;4.78;3.03;;;27.70;63.50;;;;;;5054025;28;20389;-75
2023/06/20 10:19:58;;;;;;;6.05;3.88;;;27.80;63.30;;;;;;5052513;28;20029;-76
2023/06/20 10:22:35;;;;;;;6.47;3.60;;;27.90;63.00;;;;;;5052473;28;20124;-75
2023/06/20 10:25:11;;;;;;;4.85;3.20;;;28.00;62.70;;;;;;5035669;28;20025;-75
2023/06/20 10:27:38;;;;;;;5.15;3.55;;;28.10;62.40;;;;;;5052236;28;20056;-75
2023/06/20 10:30:06;;;;;;;5.47;3.33;;;28.10;62.10;;;;;;5052305;28;20040;-76
2023/06/20 10:32:31;;;;;;;5.03;3.47;;;28.20;62.00;;;;;;5053405;28;20043;-75
2023/06/20 10:35:04;;;;;;;6.10;3.55;;;28.40;62.00;;;;;;5053488;28;20033;-75
2023/06/20 10:37:30;;;;;;;6.47;3.33;;;28.50;61.60;;;;;;5053443;28;20017;-75
2023/06/20 10:39:57;;;;;;;4.15;2.75;;;28.50;61.50;;;;;;5052085;28;20033;-75
2023/06/20 10:42:39;;;;;;;3.70;2.50;;;28.60;61.60;;;;;;5052279;28;20094;-76
2023/06/20 10:45:22;;;;;;;4.38;2.97;;;28.70;61.40;;;;;;5053316;28;20496;-81
2023/06/20 10:47:50;;;;;;;3.20;2.15;;;28.80;61.10;;;;;;5053319;28;20036;-82
2023/06/20 10:50:17;;;;;;;3.90;2.40;;;28.90;61.20;;;;;;5052386;28;20044;-81
2023/06/20 10:52:43;;;;;;;3.85;2.50;;;29.10;61.00;;;;;;5053468;28;20524;-81
2023/06/20 10:55:12;;;;;;;4.53;2.28;;;29.30;61.30;;;;;;5052212;28;20037;-80
2023/06/20 10:57:46;;;;;;;3.13;1.80;;;29.40;60.20;;;;;;5053585;28;20167;-81
2023/06/20 11:00:18;;;;;;;4.30;2.03;;;29.50;60.10;;;;;;5053406;28;20393;-81
2023/06/20 11:02:45;;;;;;;4.82;2.03;;;29.50;59.90;;;;;;5053390;28;20025;-81
2023/06/20 11:05:10;;;;;;;2.90;1.90;;;29.60;59.70;;;;;;5053421;28;20147;-82
2023/06/20 11:07:59;;;;;;;2.58;1.75;;;29.60;59.30;;;;;;5051901;28;20127;-81
2023/06/20 11:10:33;;;;;;;3.22;1.52;;;29.70;59.00;;;;;;5052081;28;20107;-79
2023/06/20 11:13:05;;;;;;;3.53;1.77;;;29.90;59.00;;;;;;5053390;28;20473;-81
2023/06/20 11:15:36;;;;;;;2.40;1.67;;;30.00;58.70;;;;;;5052013;28;20040;-82
2023/06/20 11:18:03;;;;;;;2.78;1.70;;;30.20;58.30;;;;;;5052762;28;20053;-80
2023/06/20 11:20:30;;;;;;;5.13;1.73;;;30.30;58.10;;;;;;5053151;28;20469;-81
2023/06/20 11:22:57;;;;;;;3.88;1.60;;;30.30;57.80;;;;;;5053123;28;20104;-82
2023/06/20 11:25:25;;;;;;;2.35;1.45;;;30.50;57.70;;;;;;5051865;28;20064;-81
2023/06/20 11:27:51;;;;;;;3.42;1.50;;;30.60;57.40;;;;;;5053187;28;20500;-82
2023/06/20 11:30:24;;;;;;;3.80;1.27;;;30.80;57.10;;;;;;5053116;28;20075;-79
2023/06/20 11:33:02;;;;;;;2.55;1.40;;;31.10;56.60;;;;;;5052815;28;20559;-81
2023/06/20 11:35:49;;;;;;;5.43;1.90;;;31.30;56.00;;;;;;5053682;28;20480;-81
2023/06/20 11:38:20;;;;;;;3.28;1.48;;;31.60;55.60;;;;;;5055897;28;20047;-82
2023/06/20 11:41:07;;;;;;;5.05;1.90;;;31.80;55.60;;;;;;5057003;28;20036;-82
2023/06/20 11:43:40;;;;;;;4.30;1.80;;;32.00;55.30;;;;;;5056266;28;20124;-81
2023/06/20 11:46:06;;;;;;;;;;;32.20;54.80;;;;;;5057130;28;20498;-81
2023/06/20 11:48:32;;;;;;;4.82;1.33;;;32.50;54.90;;;;;;5056868;28;19914;-82
2023/06/20 11:51:00;;;;;;;3.88;1.27;;;32.60;54.80;;;;;;5056646;28;20102;-82
2023/06/20 11:53:31;;;;;;;2.25;1.10;;;32.90;54.20;;;;;;5056942;28;20036;-82
2023/06/20 11:55:59;;;;;;;5.10;1.33;;;33.10;53.80;;;;;;5056907;28;20389;-81
2023/06/20 11:58:26;;;;;;;1.77;1.05;;;33.30;53.40;;;;;;5056723;28;20025;-79
2023/06/20 12:01:13;;;;;;;2.35;1.40;;;33.50;52.80;;;;;;5056774;28;20377;-81
2023/06/20 12:03:41;;;;;;;1.83;1.23;;;33.60;51.80;;;;;;5056608;28;20079;-82
2023/06/20 12:06:27;;;;;;;9.00;1.55;;;33.80;51.80;;;;;;5039165;28;20055;-81
2023/06/20 12:08:57;;;;;;;3.55;1.27;;;34.00;51.00;;;;;;5056518;28;20040;-81
2023/06/20 12:11:24;;;;;;;3.42;1.20;;;34.10;51.00;;;;;;5056351;28;20378;-82
2023/06/20 12:13:52;;;;;;;4.60;1.40;;;34.30;50.60;;;;;;5055343;28;20025;-82
2023/06/20 12:16:21;;;;;;;1.95;1.02;;;34.50;50.30;;;;;;5054981;28;20384;-82
2023/06/20 12:18:48;;;;;;;3.03;1.27;;;34.70;50.00;;;;;;5056996;28;20045;-83
2023/06/20 12:21:14;;;;;;;2.58;1.42;;;34.90;49.70;;;;;;5056528;28;20060;-81
2023/06/20 12:23:40;;;;;;;3.05;1.10;;;35.10;49.30;;;;;;5056092;28;20036;-80
2023/06/20 12:26:07;;;;;;;1.92;1.10;;;35.30;49.00;;;;;;5056446;28;20050;-82
2023/06/20 12:28:32;;;;;;;2.72;1.52;;;35.40;48.70;;;;;;5056221;28;20029;-82
2023/06/20 12:31:01;;;;;;;2.42;1.40;;;35.50;48.40;;;;;;5056179;28;20504;-84
2023/06/20 12:33:27;;;;;;;2.17;1.00;;;35.70;48.30;;;;;;5054897;28;20112;-81
2023/06/20 12:35:53;;;;;;;2.33;1.30;;;35.90;48.10;;;;;;5056054;28;20104;-83
2023/06/20 12:38:18;;;;;;;1.88;1.05;;;36.10;47.80;;;;;;5054464;28;20036;-83
2023/06/20 12:40:44;;;;;;;2.40;1.15;;;36.20;47.40;;;;;;5055535;28;20028;-81
2023/06/20 12:43:10;;;;;;;2.90;1.20;;;36.40;47.00;;;;;;5054206;28;20473;-83
2023/06/20 12:45:36;;;;;;;1.70;1.00;;;36.50;46.70;;;;;;5054072;28;20508;-82
2023/06/20 12:48:02;;;;;;;2.08;1.20;;;36.60;46.60;;;;;;5055654;28;20037;-82